sensor_id;sensor_type;location;lat;lon;timestamp;P1;durP1;ratioP1;P2;durP2;ratioP2
6499;SDS011;3283;52.330;9.772;2024-03-17T00:01:04;10.33;;;3.53;;
6499;SDS011;3283;52.330;9.772;2024-03-17T00:03:30;10.17;;;3.53;;
6499;SDS011;3283;52.330;9.772;2024-03-17T00:05:56;9.23;;;3.13;;
6499;SDS011;3283;52.330;9.772;2024-03-17T00:08:22;12.50;;;3.70;;
6499;SDS011;3283;52.330;9.772;2024-03-17T00:10:51;12.57;;;3.00;;
6499;SDS011;3283;52.330;9.772;2024-03-17T00:13:18;16.00;;;3.00;;
6499;SDS011;3283;52.330;9.772;2024-03-17T00:15:43;12.40;;;3.03;;
6499;SDS011;3283;52.330;9.772;2024-03-17T00:18:12;12.93;;;4.07;;
6499;SDS011;3283;52.330;9.772;2024-03-17T00:20:37;9.90;;;3.50;;
6499;SDS011;3283;52.330;9.772;2024-03-17T00:23:03;8.23;;;3.27;;
6499;SDS011;3283;52.330;9.772;2024-03-17T00:25:31;4.10;;;2.60;;
6499;SDS011;3283;52.330;9.772;2024-03-17T00:28:00;6.90;;;2.57;;
6499;SDS011;3283;52.330;9.772;2024-03-17T00:30:26;11.90;;;2.77;;
6499;SDS011;3283;52.330;9.772;2024-03-17T00:32:52;11.00;;;3.07;;
6499;SDS011;3283;52.330;9.772;2024-03-17T00:35:17;3.53;;;2.80;;
6499;SDS011;3283;52.330;9.772;2024-03-17T00:37:48;8.53;;;2.70;;
6499;SDS011;3283;52.330;9.772;2024-03-17T00:40:15;7.23;;;2.90;;
6499;SDS011;3283;52.330;9.772;2024-03-17T00:42:42;10.30;;;3.83;;
6499;SDS011;3283;52.330;9.772;2024-03-17T00:45:08;6.10;;;2.93;;
6499;SDS011;3283;52.330;9.772;2024-03-17T00:47:35;16.63;;;4.23;;
6499;SDS011;3283;52.330;9.772;2024-03-17T00:50:01;13.80;;;3.73;;
6499;SDS011;3283;52.330;9.772;2024-03-17T00:52:26;5.70;;;3.00;;
6499;SDS011;3283;52.330;9.772;2024-03-17T00:54:52;3.13;;;2.23;;
6499;SDS011;3283;52.330;9.772;2024-03-17T00:57:19;7.10;;;3.37;;
6499;SDS011;3283;52.330;9.772;2024-03-17T00:59:44;15.53;;;3.20;;
6499;SDS011;3283;52.330;9.772;2024-03-17T01:02:12;16.57;;;3.93;;
6499;SDS011;3283;52.330;9.772;2024-03-17T01:04:41;8.73;;;4.00;;
6499;SDS011;3283;52.330;9.772;2024-03-17T01:07:07;7.07;;;3.30;;
6499;SDS011;3283;52.330;9.772;2024-03-17T01:09:32;11.80;;;4.23;;
6499;SDS011;3283;52.330;9.772;2024-03-17T01:11:58;5.87;;;3.23;;
6499;SDS011;3283;52.330;9.772;2024-03-17T01:14:23;7.77;;;2.93;;
6499;SDS011;3283;52.330;9.772;2024-03-17T01:16:50;5.53;;;3.40;;
6499;SDS011;3283;52.330;9.772;2024-03-17T01:19:16;9.17;;;2.93;;
6499;SDS011;3283;52.330;9.772;2024-03-17T01:21:41;13.77;;;4.17;;
6499;SDS011;3283;52.330;9.772;2024-03-17T01:24:06;6.37;;;3.43;;
6499;SDS011;3283;52.330;9.772;2024-03-17T01:26:32;5.80;;;2.80;;
6499;SDS011;3283;52.330;9.772;2024-03-17T01:28:58;5.90;;;3.10;;
6499;SDS011;3283;52.330;9.772;2024-03-17T01:31:23;10.30;;;4.20;;
6499;SDS011;3283;52.330;9.772;2024-03-17T01:33:50;7.70;;;2.97;;
6499;SDS011;3283;52.330;9.772;2024-03-17T01:36:15;7.33;;;3.10;;
6499;SDS011;3283;52.330;9.772;2024-03-17T01:38:41;12.83;;;3.30;;
6499;SDS011;3283;52.330;9.772;2024-03-17T01:41:06;9.60;;;3.70;;
6499;SDS011;3283;52.330;9.772;2024-03-17T01:43:32;8.93;;;3.70;;
6499;SDS011;3283;52.330;9.772;2024-03-17T01:45:58;6.07;;;3.30;;
6499;SDS011;3283;52.330;9.772;2024-03-17T01:48:24;4.57;;;2.90;;
6499;SDS011;3283;52.330;9.772;2024-03-17T01:50:51;13.53;;;3.50;;
6499;SDS011;3283;52.330;9.772;2024-03-17T01:53:20;2.93;;;2.73;;
6499;SDS011;3283;52.330;9.772;2024-03-17T01:55:47;7.60;;;4.40;;
6499;SDS011;3283;52.330;9.772;2024-03-17T01:58:12;4.37;;;3.37;;
6499;SDS011;3283;52.330;9.772;2024-03-17T02:00:38;12.60;;;3.40;;
6499;SDS011;3283;52.330;9.772;2024-03-17T02:03:08;9.30;;;3.47;;
6499;SDS011;3283;52.330;9.772;2024-03-17T02:05:34;6.87;;;3.87;;
6499;SDS011;3283;52.330;9.772;2024-03-17T02:08:03;4.20;;;3.80;;
6499;SDS011;3283;52.330;9.772;2024-03-17T02:10:29;7.43;;;2.97;;
6499;SDS011;3283;52.330;9.772;2024-03-17T02:12:54;8.60;;;3.63;;
6499;SDS011;3283;52.330;9.772;2024-03-17T02:15:20;8.57;;;4.37;;
6499;SDS011;3283;52.330;9.772;2024-03-17T02:17:45;7.20;;;3.03;;
6499;SDS011;3283;52.330;9.772;2024-03-17T02:20:11;11.67;;;3.80;;
6499;SDS011;3283;52.330;9.772;2024-03-17T02:22:37;11.07;;;3.97;;
6499;SDS011;3283;52.330;9.772;2024-03-17T02:25:03;15.60;;;3.33;;
6499;SDS011;3283;52.330;9.772;2024-03-17T02:27:28;6.47;;;3.00;;
6499;SDS011;3283;52.330;9.772;2024-03-17T02:29:54;3.93;;;3.30;;
6499;SDS011;3283;52.330;9.772;2024-03-17T02:32:20;5.50;;;3.33;;
6499;SDS011;3283;52.330;9.772;2024-03-17T02:34:47;9.33;;;3.80;;
6499;SDS011;3283;52.330;9.772;2024-03-17T02:37:13;7.30;;;3.70;;
6499;SDS011;3283;52.330;9.772;2024-03-17T02:39:39;7.23;;;3.37;;
6499;SDS011;3283;52.330;9.772;2024-03-17T02:42:06;18.10;;;3.80;;
6499;SDS011;3283;52.330;9.772;2024-03-17T02:44:33;5.97;;;2.93;;
6499;SDS011;3283;52.330;9.772;2024-03-17T02:47:00;7.20;;;3.53;;
6499;SDS011;3283;52.330;9.772;2024-03-17T02:49:27;6.77;;;3.60;;
6499;SDS011;3283;52.330;9.772;2024-03-17T02:52:00;10.70;;;3.50;;
6499;SDS011;3283;52.330;9.772;2024-03-17T02:54:26;6.83;;;4.40;;
6499;SDS011;3283;52.330;9.772;2024-03-17T02:56:51;6.80;;;3.07;;
6499;SDS011;3283;52.330;9.772;2024-03-17T02:59:16;9.83;;;3.40;;
6499;SDS011;3283;52.330;9.772;2024-03-17T03:01:42;6.67;;;3.60;;
6499;SDS011;3283;52.330;9.772;2024-03-17T03:04:08;6.23;;;3.33;;
6499;SDS011;3283;52.330;9.772;2024-03-17T03:06:33;11.73;;;4.13;;
6499;SDS011;3283;52.330;9.772;2024-03-17T03:08:59;9.27;;;4.10;;
6499;SDS011;3283;52.330;9.772;2024-03-17T03:11:25;6.27;;;3.50;;
6499;SDS011;3283;52.330;9.772;2024-03-17T03:13:51;11.20;;;3.60;;
6499;SDS011;3283;52.330;9.772;2024-03-17T03:16:16;8.80;;;3.33;;
6499;SDS011;3283;52.330;9.772;2024-03-17T03:18:43;4.97;;;3.27;;
6499;SDS011;3283;52.330;9.772;2024-03-17T03:21:09;10.30;;;3.40;;
6499;SDS011;3283;52.330;9.772;2024-03-17T03:23:36;7.93;;;3.80;;
6499;SDS011;3283;52.330;9.772;2024-03-17T03:26:02;6.20;;;3.70;;
6499;SDS011;3283;52.330;9.772;2024-03-17T03:28:29;8.27;;;4.30;;
6499;SDS011;3283;52.330;9.772;2024-03-17T03:30:56;4.73;;;3.60;;
6499;SDS011;3283;52.330;9.772;2024-03-17T03:33:21;9.80;;;4.53;;
6499;SDS011;3283;52.330;9.772;2024-03-17T03:35:47;6.50;;;3.70;;
6499;SDS011;3283;52.330;9.772;2024-03-17T03:38:13;10.33;;;3.47;;
6499;SDS011;3283;52.330;9.772;2024-03-17T03:40:40;7.53;;;3.60;;
6499;SDS011;3283;52.330;9.772;2024-03-17T03:43:07;7.47;;;3.87;;
6499;SDS011;3283;52.330;9.772;2024-03-17T03:45:33;4.90;;;3.50;;
6499;SDS011;3283;52.330;9.772;2024-03-17T03:47:59;10.67;;;3.60;;
6499;SDS011;3283;52.330;9.772;2024-03-17T03:50:25;4.00;;;2.90;;
6499;SDS011;3283;52.330;9.772;2024-03-17T03:52:50;13.03;;;3.80;;
6499;SDS011;3283;52.330;9.772;2024-03-17T03:55:16;4.03;;;3.63;;
6499;SDS011;3283;52.330;9.772;2024-03-17T03:57:42;5.60;;;3.50;;
6499;SDS011;3283;52.330;9.772;2024-03-17T04:00:11;12.57;;;3.50;;
6499;SDS011;3283;52.330;9.772;2024-03-17T04:02:46;13.63;;;4.10;;
6499;SDS011;3283;52.330;9.772;2024-03-17T04:05:16;5.50;;;3.90;;
6499;SDS011;3283;52.330;9.772;2024-03-17T04:07:42;8.37;;;3.70;;
6499;SDS011;3283;52.330;9.772;2024-03-17T04:10:10;7.50;;;4.40;;
6499;SDS011;3283;52.330;9.772;2024-03-17T04:12:39;9.80;;;4.60;;
6499;SDS011;3283;52.330;9.772;2024-03-17T04:15:05;7.37;;;3.93;;
6499;SDS011;3283;52.330;9.772;2024-03-17T04:17:31;10.43;;;6.00;;
6499;SDS011;3283;52.330;9.772;2024-03-17T04:19:57;7.13;;;3.20;;
6499;SDS011;3283;52.330;9.772;2024-03-17T04:22:23;5.47;;;4.10;;
6499;SDS011;3283;52.330;9.772;2024-03-17T04:24:49;5.57;;;3.97;;
6499;SDS011;3283;52.330;9.772;2024-03-17T04:27:21;11.87;;;3.70;;
6499;SDS011;3283;52.330;9.772;2024-03-17T04:29:51;5.07;;;4.30;;
6499;SDS011;3283;52.330;9.772;2024-03-17T04:32:17;8.13;;;5.00;;
6499;SDS011;3283;52.330;9.772;2024-03-17T04:34:43;9.90;;;5.67;;
6499;SDS011;3283;52.330;9.772;2024-03-17T04:37:09;9.87;;;4.17;;
6499;SDS011;3283;52.330;9.772;2024-03-17T04:39:37;8.27;;;4.00;;
6499;SDS011;3283;52.330;9.772;2024-03-17T04:42:03;5.70;;;3.80;;
6499;SDS011;3283;52.330;9.772;2024-03-17T04:44:29;7.17;;;4.23;;
6499;SDS011;3283;52.330;9.772;2024-03-17T04:46:55;9.77;;;4.40;;
6499;SDS011;3283;52.330;9.772;2024-03-17T04:49:20;7.10;;;4.10;;
6499;SDS011;3283;52.330;9.772;2024-03-17T04:51:46;8.27;;;3.70;;
6499;SDS011;3283;52.330;9.772;2024-03-17T04:54:11;7.03;;;3.83;;
6499;SDS011;3283;52.330;9.772;2024-03-17T04:56:36;5.77;;;3.70;;
6499;SDS011;3283;52.330;9.772;2024-03-17T04:59:02;10.23;;;4.70;;
6499;SDS011;3283;52.330;9.772;2024-03-17T05:01:27;10.20;;;5.00;;
6499;SDS011;3283;52.330;9.772;2024-03-17T05:03:53;7.50;;;3.90;;
6499;SDS011;3283;52.330;9.772;2024-03-17T05:06:18;5.57;;;3.90;;
6499;SDS011;3283;52.330;9.772;2024-03-17T05:08:44;9.57;;;5.13;;
6499;SDS011;3283;52.330;9.772;2024-03-17T05:11:09;10.00;;;4.40;;
6499;SDS011;3283;52.330;9.772;2024-03-17T05:13:35;4.73;;;4.23;;
6499;SDS011;3283;52.330;9.772;2024-03-17T05:16:05;9.40;;;5.37;;
6499;SDS011;3283;52.330;9.772;2024-03-17T05:18:30;6.47;;;5.03;;
6499;SDS011;3283;52.330;9.772;2024-03-17T05:21:01;5.27;;;4.77;;
6499;SDS011;3283;52.330;9.772;2024-03-17T05:23:29;8.30;;;4.40;;
6499;SDS011;3283;52.330;9.772;2024-03-17T05:25:59;11.50;;;5.80;;
6499;SDS011;3283;52.330;9.772;2024-03-17T05:28:25;10.50;;;5.03;;
6499;SDS011;3283;52.330;9.772;2024-03-17T05:30:52;10.77;;;5.43;;
6499;SDS011;3283;52.330;9.772;2024-03-17T05:33:18;5.40;;;4.90;;
6499;SDS011;3283;52.330;9.772;2024-03-17T05:35:52;6.70;;;4.50;;
6499;SDS011;3283;52.330;9.772;2024-03-17T05:38:20;9.93;;;4.33;;
6499;SDS011;3283;52.330;9.772;2024-03-17T05:40:56;5.83;;;5.23;;
6499;SDS011;3283;52.330;9.772;2024-03-17T05:43:23;11.97;;;5.43;;
6499;SDS011;3283;52.330;9.772;2024-03-17T05:45:50;10.03;;;5.10;;
6499;SDS011;3283;52.330;9.772;2024-03-17T05:48:16;6.27;;;4.53;;
6499;SDS011;3283;52.330;9.772;2024-03-17T05:50:42;7.33;;;5.17;;
6499;SDS011;3283;52.330;9.772;2024-03-17T05:53:07;12.90;;;5.30;;
6499;SDS011;3283;52.330;9.772;2024-03-17T05:55:34;10.00;;;6.77;;
6499;SDS011;3283;52.330;9.772;2024-03-17T05:58:01;7.43;;;5.30;;
6499;SDS011;3283;52.330;9.772;2024-03-17T06:00:27;9.13;;;5.20;;
6499;SDS011;3283;52.330;9.772;2024-03-17T06:02:53;6.43;;;4.83;;
6499;SDS011;3283;52.330;9.772;2024-03-17T06:05:18;11.97;;;5.37;;
6499;SDS011;3283;52.330;9.772;2024-03-17T06:07:43;5.87;;;4.47;;
6499;SDS011;3283;52.330;9.772;2024-03-17T06:10:09;11.23;;;5.30;;
6499;SDS011;3283;52.330;9.772;2024-03-17T06:12:34;8.73;;;5.40;;
6499;SDS011;3283;52.330;9.772;2024-03-17T06:15:00;7.30;;;4.53;;
6499;SDS011;3283;52.330;9.772;2024-03-17T06:17:27;5.80;;;4.60;;
6499;SDS011;3283;52.330;9.772;2024-03-17T06:19:52;8.53;;;4.30;;
6499;SDS011;3283;52.330;9.772;2024-03-17T06:22:18;6.07;;;4.57;;
6499;SDS011;3283;52.330;9.772;2024-03-17T06:24:43;5.87;;;4.60;;
6499;SDS011;3283;52.330;9.772;2024-03-17T06:27:08;8.20;;;4.20;;
6499;SDS011;3283;52.330;9.772;2024-03-17T06:29:34;8.30;;;4.80;;
6499;SDS011;3283;52.330;9.772;2024-03-17T06:31:59;4.67;;;4.00;;
6499;SDS011;3283;52.330;9.772;2024-03-17T06:34:25;5.70;;;4.13;;
6499;SDS011;3283;52.330;9.772;2024-03-17T06:36:51;7.77;;;4.60;;
6499;SDS011;3283;52.330;9.772;2024-03-17T06:39:16;7.90;;;4.90;;
6499;SDS011;3283;52.330;9.772;2024-03-17T06:41:42;4.97;;;4.30;;
6499;SDS011;3283;52.330;9.772;2024-03-17T06:44:08;7.67;;;5.20;;
6499;SDS011;3283;52.330;9.772;2024-03-17T06:46:34;8.10;;;5.83;;
6499;SDS011;3283;52.330;9.772;2024-03-17T06:49:00;5.80;;;4.30;;
6499;SDS011;3283;52.330;9.772;2024-03-17T06:51:25;6.97;;;5.10;;
6499;SDS011;3283;52.330;9.772;2024-03-17T06:53:50;11.60;;;4.80;;
6499;SDS011;3283;52.330;9.772;2024-03-17T06:56:16;7.57;;;4.13;;
6499;SDS011;3283;52.330;9.772;2024-03-17T06:58:41;6.00;;;3.77;;
6499;SDS011;3283;52.330;9.772;2024-03-17T07:01:07;7.23;;;4.30;;
6499;SDS011;3283;52.330;9.772;2024-03-17T07:03:33;7.33;;;4.60;;
6499;SDS011;3283;52.330;9.772;2024-03-17T07:05:59;8.77;;;4.17;;
6499;SDS011;3283;52.330;9.772;2024-03-17T07:08:28;11.20;;;4.73;;
6499;SDS011;3283;52.330;9.772;2024-03-17T07:10:54;4.70;;;4.07;;
6499;SDS011;3283;52.330;9.772;2024-03-17T07:13:22;8.43;;;4.13;;
6499;SDS011;3283;52.330;9.772;2024-03-17T07:15:48;6.37;;;4.20;;
6499;SDS011;3283;52.330;9.772;2024-03-17T07:18:14;6.13;;;4.40;;
6499;SDS011;3283;52.330;9.772;2024-03-17T07:20:40;8.70;;;4.87;;
6499;SDS011;3283;52.330;9.772;2024-03-17T07:23:05;6.23;;;4.13;;
6499;SDS011;3283;52.330;9.772;2024-03-17T07:25:31;12.73;;;4.80;;
6499;SDS011;3283;52.330;9.772;2024-03-17T07:27:56;13.80;;;5.03;;
6499;SDS011;3283;52.330;9.772;2024-03-17T07:30:22;6.80;;;4.30;;
6499;SDS011;3283;52.330;9.772;2024-03-17T07:32:47;7.80;;;4.07;;
6499;SDS011;3283;52.330;9.772;2024-03-17T07:35:12;7.00;;;4.37;;
6499;SDS011;3283;52.330;9.772;2024-03-17T07:37:39;6.83;;;4.80;;
6499;SDS011;3283;52.330;9.772;2024-03-17T07:40:05;8.03;;;4.10;;
6499;SDS011;3283;52.330;9.772;2024-03-17T07:42:35;7.50;;;3.97;;
6499;SDS011;3283;52.330;9.772;2024-03-17T07:45:01;8.70;;;5.30;;
6499;SDS011;3283;52.330;9.772;2024-03-17T07:47:27;9.67;;;4.43;;
6499;SDS011;3283;52.330;9.772;2024-03-17T07:50:00;8.93;;;4.43;;
6499;SDS011;3283;52.330;9.772;2024-03-17T07:52:31;11.43;;;5.10;;
6499;SDS011;3283;52.330;9.772;2024-03-17T07:54:57;10.47;;;5.13;;
6499;SDS011;3283;52.330;9.772;2024-03-17T07:57:23;10.00;;;4.13;;
6499;SDS011;3283;52.330;9.772;2024-03-17T07:59:51;6.83;;;4.27;;
6499;SDS011;3283;52.330;9.772;2024-03-17T08:02:17;9.10;;;4.63;;
6499;SDS011;3283;52.330;9.772;2024-03-17T08:04:43;5.53;;;3.53;;
6499;SDS011;3283;52.330;9.772;2024-03-17T08:07:12;7.67;;;4.20;;
6499;SDS011;3283;52.330;9.772;2024-03-17T08:09:37;7.50;;;3.47;;
6499;SDS011;3283;52.330;9.772;2024-03-17T08:12:03;8.47;;;3.90;;
6499;SDS011;3283;52.330;9.772;2024-03-17T08:14:30;10.57;;;3.80;;
6499;SDS011;3283;52.330;9.772;2024-03-17T08:16:56;7.37;;;3.50;;
6499;SDS011;3283;52.330;9.772;2024-03-17T08:19:21;13.13;;;4.20;;
6499;SDS011;3283;52.330;9.772;2024-03-17T08:21:47;8.67;;;3.50;;
6499;SDS011;3283;52.330;9.772;2024-03-17T08:24:12;8.87;;;3.83;;
6499;SDS011;3283;52.330;9.772;2024-03-17T08:26:38;12.07;;;4.23;;
6499;SDS011;3283;52.330;9.772;2024-03-17T08:29:05;5.27;;;3.30;;
6499;SDS011;3283;52.330;9.772;2024-03-17T08:31:30;17.53;;;4.30;;
6499;SDS011;3283;52.330;9.772;2024-03-17T08:33:56;5.07;;;3.33;;
6499;SDS011;3283;52.330;9.772;2024-03-17T08:36:21;8.80;;;4.30;;
6499;SDS011;3283;52.330;9.772;2024-03-17T08:38:47;12.40;;;3.47;;
6499;SDS011;3283;52.330;9.772;2024-03-17T08:41:13;7.23;;;3.20;;
6499;SDS011;3283;52.330;9.772;2024-03-17T08:43:39;14.03;;;3.77;;
6499;SDS011;3283;52.330;9.772;2024-03-17T08:46:07;4.47;;;2.57;;
6499;SDS011;3283;52.330;9.772;2024-03-17T08:48:37;6.80;;;2.97;;
6499;SDS011;3283;52.330;9.772;2024-03-17T08:51:03;14.47;;;2.83;;
6499;SDS011;3283;52.330;9.772;2024-03-17T08:53:30;12.30;;;5.80;;
6499;SDS011;3283;52.330;9.772;2024-03-17T08:55:57;13.00;;;3.30;;
6499;SDS011;3283;52.330;9.772;2024-03-17T08:58:23;6.60;;;3.10;;
6499;SDS011;3283;52.330;9.772;2024-03-17T09:00:49;9.03;;;2.77;;
6499;SDS011;3283;52.330;9.772;2024-03-17T09:03:15;12.77;;;3.20;;
6499;SDS011;3283;52.330;9.772;2024-03-17T09:05:41;11.40;;;3.50;;
6499;SDS011;3283;52.330;9.772;2024-03-17T09:08:07;18.10;;;3.43;;
6499;SDS011;3283;52.330;9.772;2024-03-17T09:10:39;5.03;;;2.17;;
6499;SDS011;3283;52.330;9.772;2024-03-17T09:13:05;8.23;;;2.93;;
6499;SDS011;3283;52.330;9.772;2024-03-17T09:15:31;4.63;;;2.20;;
6499;SDS011;3283;52.330;9.772;2024-03-17T09:17:56;3.80;;;2.33;;
6499;SDS011;3283;52.330;9.772;2024-03-17T09:20:22;6.83;;;2.90;;
6499;SDS011;3283;52.330;9.772;2024-03-17T09:22:47;10.43;;;2.70;;
6499;SDS011;3283;52.330;9.772;2024-03-17T09:25:13;8.23;;;2.23;;
6499;SDS011;3283;52.330;9.772;2024-03-17T09:27:40;9.93;;;3.10;;
6499;SDS011;3283;52.330;9.772;2024-03-17T09:30:06;9.03;;;4.03;;
6499;SDS011;3283;52.330;9.772;2024-03-17T09:32:35;12.07;;;3.73;;
6499;SDS011;3283;52.330;9.772;2024-03-17T09:35:01;7.73;;;3.30;;
6499;SDS011;3283;52.330;9.772;2024-03-17T09:37:26;11.47;;;3.00;;
6499;SDS011;3283;52.330;9.772;2024-03-17T09:39:56;11.53;;;3.20;;
6499;SDS011;3283;52.330;9.772;2024-03-17T09:42:22;8.60;;;3.13;;
6499;SDS011;3283;52.330;9.772;2024-03-17T09:44:49;13.33;;;3.40;;
6499;SDS011;3283;52.330;9.772;2024-03-17T09:47:20;6.80;;;3.40;;
6499;SDS011;3283;52.330;9.772;2024-03-17T09:49:47;10.00;;;3.30;;
6499;SDS011;3283;52.330;9.772;2024-03-17T09:52:31;8.57;;;3.00;;
6499;SDS011;3283;52.330;9.772;2024-03-17T09:54:59;7.10;;;3.53;;
6499;SDS011;3283;52.330;9.772;2024-03-17T09:57:32;4.87;;;2.73;;
6499;SDS011;3283;52.330;9.772;2024-03-17T10:00:00;6.23;;;2.60;;
6499;SDS011;3283;52.330;9.772;2024-03-17T10:02:30;14.60;;;4.07;;
6499;SDS011;3283;52.330;9.772;2024-03-17T10:04:56;8.47;;;3.20;;
6499;SDS011;3283;52.330;9.772;2024-03-17T10:07:35;5.43;;;2.80;;
6499;SDS011;3283;52.330;9.772;2024-03-17T10:10:12;14.47;;;4.13;;
6499;SDS011;3283;52.330;9.772;2024-03-17T10:12:38;11.27;;;3.97;;
6499;SDS011;3283;52.330;9.772;2024-03-17T10:15:03;9.50;;;3.77;;
6499;SDS011;3283;52.330;9.772;2024-03-17T10:17:32;5.57;;;3.80;;
6499;SDS011;3283;52.330;9.772;2024-03-17T10:25:27;7.80;;;3.90;;
6499;SDS011;3283;52.330;9.772;2024-03-17T10:27:54;13.03;;;4.20;;
6499;SDS011;3283;52.330;9.772;2024-03-17T10:30:21;9.20;;;4.57;;
6499;SDS011;3283;52.330;9.772;2024-03-17T10:32:58;11.33;;;4.33;;
6499;SDS011;3283;52.330;9.772;2024-03-17T10:35:34;8.23;;;4.50;;
6499;SDS011;3283;52.330;9.772;2024-03-17T10:38:04;7.13;;;4.03;;
6499;SDS011;3283;52.330;9.772;2024-03-17T10:40:31;9.73;;;4.90;;
6499;SDS011;3283;52.330;9.772;2024-03-17T10:42:59;7.63;;;4.00;;
6499;SDS011;3283;52.330;9.772;2024-03-17T10:45:26;6.60;;;3.90;;
6499;SDS011;3283;52.330;9.772;2024-03-17T10:47:56;9.73;;;4.90;;
6499;SDS011;3283;52.330;9.772;2024-03-17T10:50:25;8.40;;;4.47;;
6499;SDS011;3283;52.330;9.772;2024-03-17T10:52:55;9.33;;;5.00;;
6499;SDS011;3283;52.330;9.772;2024-03-17T10:55:28;12.73;;;5.13;;
6499;SDS011;3283;52.330;9.772;2024-03-17T10:57:57;14.33;;;5.20;;
6499;SDS011;3283;52.330;9.772;2024-03-17T11:00:29;10.87;;;6.07;;
6499;SDS011;3283;52.330;9.772;2024-03-17T11:02:55;8.60;;;5.00;;
6499;SDS011;3283;52.330;9.772;2024-03-17T11:07:52;11.03;;;4.97;;
6499;SDS011;3283;52.330;9.772;2024-03-17T11:10:27;14.83;;;6.43;;
6499;SDS011;3283;52.330;9.772;2024-03-17T11:12:54;12.53;;;6.37;;
6499;SDS011;3283;52.330;9.772;2024-03-17T11:20:33;12.23;;;5.13;;
6499;SDS011;3283;52.330;9.772;2024-03-17T11:22:59;8.10;;;4.97;;
6499;SDS011;3283;52.330;9.772;2024-03-17T11:27:50;10.03;;;5.13;;
6499;SDS011;3283;52.330;9.772;2024-03-17T11:36:45;10.70;;;5.27;;
6499;SDS011;3283;52.330;9.772;2024-03-17T11:41:44;7.60;;;5.10;;
6499;SDS011;3283;52.330;9.772;2024-03-17T11:46:50;6.93;;;5.07;;
6499;SDS011;3283;52.330;9.772;2024-03-17T11:49:43;6.80;;;4.40;;
6499;SDS011;3283;52.330;9.772;2024-03-17T11:52:11;10.70;;;5.17;;
6499;SDS011;3283;52.330;9.772;2024-03-17T11:54:38;8.00;;;4.73;;
6499;SDS011;3283;52.330;9.772;2024-03-17T11:57:06;11.10;;;4.63;;
6499;SDS011;3283;52.330;9.772;2024-03-17T11:59:33;11.17;;;5.40;;
6499;SDS011;3283;52.330;9.772;2024-03-17T12:01:59;7.70;;;4.87;;
6499;SDS011;3283;52.330;9.772;2024-03-17T12:04:26;9.20;;;4.67;;
6499;SDS011;3283;52.330;9.772;2024-03-17T12:09:21;7.60;;;4.67;;
6499;SDS011;3283;52.330;9.772;2024-03-17T12:11:50;7.37;;;4.87;;
6499;SDS011;3283;52.330;9.772;2024-03-17T12:14:22;9.20;;;4.40;;
6499;SDS011;3283;52.330;9.772;2024-03-17T12:16:51;9.03;;;5.13;;
6499;SDS011;3283;52.330;9.772;2024-03-17T12:19:17;10.37;;;4.80;;
6499;SDS011;3283;52.330;9.772;2024-03-17T12:21:46;6.30;;;4.50;;
6499;SDS011;3283;52.330;9.772;2024-03-17T12:24:15;8.13;;;4.57;;
6499;SDS011;3283;52.330;9.772;2024-03-17T12:26:45;9.23;;;5.33;;
6499;SDS011;3283;52.330;9.772;2024-03-17T12:32:18;7.20;;;4.73;;
6499;SDS011;3283;52.330;9.772;2024-03-17T12:34:47;9.70;;;5.47;;
6499;SDS011;3283;52.330;9.772;2024-03-17T12:37:21;11.50;;;5.47;;
6499;SDS011;3283;52.330;9.772;2024-03-17T12:39:46;8.03;;;4.93;;
6499;SDS011;3283;52.330;9.772;2024-03-17T12:44:51;7.73;;;4.80;;
6499;SDS011;3283;52.330;9.772;2024-03-17T12:47:22;6.83;;;4.63;;
6499;SDS011;3283;52.330;9.772;2024-03-17T12:49:52;7.87;;;5.10;;
6499;SDS011;3283;52.330;9.772;2024-03-17T12:52:26;8.30;;;4.63;;
6499;SDS011;3283;52.330;9.772;2024-03-17T12:55:08;7.80;;;4.77;;
6499;SDS011;3283;52.330;9.772;2024-03-17T12:58:04;9.80;;;4.77;;
6499;SDS011;3283;52.330;9.772;2024-03-17T13:03:42;5.10;;;4.60;;
6499;SDS011;3283;52.330;9.772;2024-03-17T13:06:09;5.40;;;3.80;;
6499;SDS011;3283;52.330;9.772;2024-03-17T13:08:47;8.07;;;4.80;;
6499;SDS011;3283;52.330;9.772;2024-03-17T13:11:14;5.87;;;4.00;;
6499;SDS011;3283;52.330;9.772;2024-03-17T13:13:39;6.00;;;4.67;;
6499;SDS011;3283;52.330;9.772;2024-03-17T13:16:04;8.97;;;5.30;;
6499;SDS011;3283;52.330;9.772;2024-03-17T13:18:30;15.37;;;5.60;;
6499;SDS011;3283;52.330;9.772;2024-03-17T13:20:56;7.80;;;5.00;;
6499;SDS011;3283;52.330;9.772;2024-03-17T13:23:23;4.23;;;3.80;;
6499;SDS011;3283;52.330;9.772;2024-03-17T13:25:49;7.93;;;4.63;;
6499;SDS011;3283;52.330;9.772;2024-03-17T13:28:15;9.70;;;4.70;;
6499;SDS011;3283;52.330;9.772;2024-03-17T13:30:40;8.90;;;4.97;;
6499;SDS011;3283;52.330;9.772;2024-03-17T13:33:08;9.53;;;4.10;;
6499;SDS011;3283;52.330;9.772;2024-03-17T13:35:34;7.80;;;5.40;;
6499;SDS011;3283;52.330;9.772;2024-03-17T13:38:03;7.53;;;5.23;;
6499;SDS011;3283;52.330;9.772;2024-03-17T13:40:29;11.07;;;5.40;;
6499;SDS011;3283;52.330;9.772;2024-03-17T13:42:54;6.13;;;4.83;;
6499;SDS011;3283;52.330;9.772;2024-03-17T13:45:22;9.80;;;5.60;;
6499;SDS011;3283;52.330;9.772;2024-03-17T13:47:54;5.63;;;4.40;;
6499;SDS011;3283;52.330;9.772;2024-03-17T13:50:21;8.27;;;4.50;;
6499;SDS011;3283;52.330;9.772;2024-03-17T13:52:47;8.67;;;5.03;;
6499;SDS011;3283;52.330;9.772;2024-03-17T13:55:17;7.43;;;5.47;;
6499;SDS011;3283;52.330;9.772;2024-03-17T13:57:46;8.03;;;4.97;;
6499;SDS011;3283;52.330;9.772;2024-03-17T14:00:20;7.13;;;4.50;;
6499;SDS011;3283;52.330;9.772;2024-03-17T14:02:46;8.67;;;4.80;;
6499;SDS011;3283;52.330;9.772;2024-03-17T14:05:14;8.57;;;6.30;;
6499;SDS011;3283;52.330;9.772;2024-03-17T14:07:40;7.63;;;4.70;;
6499;SDS011;3283;52.330;9.772;2024-03-17T14:10:07;9.10;;;5.00;;
6499;SDS011;3283;52.330;9.772;2024-03-17T14:12:37;10.43;;;6.20;;
6499;SDS011;3283;52.330;9.772;2024-03-17T14:15:10;6.17;;;5.47;;
6499;SDS011;3283;52.330;9.772;2024-03-17T14:17:40;9.23;;;5.00;;
6499;SDS011;3283;52.330;9.772;2024-03-17T14:20:07;11.90;;;5.27;;
6499;SDS011;3283;52.330;9.772;2024-03-17T14:22:37;8.37;;;5.20;;
6499;SDS011;3283;52.330;9.772;2024-03-17T14:25:04;7.83;;;4.60;;
6499;SDS011;3283;52.330;9.772;2024-03-17T14:27:37;6.53;;;5.27;;
6499;SDS011;3283;52.330;9.772;2024-03-17T14:30:03;8.53;;;6.80;;
6499;SDS011;3283;52.330;9.772;2024-03-17T14:32:30;5.50;;;4.90;;
6499;SDS011;3283;52.330;9.772;2024-03-17T14:34:55;10.40;;;5.30;;
6499;SDS011;3283;52.330;9.772;2024-03-17T14:37:21;7.80;;;5.10;;
6499;SDS011;3283;52.330;9.772;2024-03-17T14:39:51;5.50;;;4.80;;
6499;SDS011;3283;52.330;9.772;2024-03-17T14:42:16;5.87;;;5.00;;
6499;SDS011;3283;52.330;9.772;2024-03-17T14:44:42;6.77;;;4.50;;
6499;SDS011;3283;52.330;9.772;2024-03-17T14:47:08;5.90;;;5.30;;
6499;SDS011;3283;52.330;9.772;2024-03-17T14:49:33;7.00;;;5.37;;
6499;SDS011;3283;52.330;9.772;2024-03-17T14:51:59;7.93;;;4.60;;
6499;SDS011;3283;52.330;9.772;2024-03-17T14:54:25;20.70;;;11.43;;
6499;SDS011;3283;52.330;9.772;2024-03-17T14:56:51;9.77;;;5.60;;
6499;SDS011;3283;52.330;9.772;2024-03-17T14:59:18;8.10;;;5.27;;
6499;SDS011;3283;52.330;9.772;2024-03-17T15:01:47;7.63;;;4.80;;
6499;SDS011;3283;52.330;9.772;2024-03-17T15:04:12;10.13;;;6.17;;
6499;SDS011;3283;52.330;9.772;2024-03-17T15:06:38;9.97;;;5.33;;
6499;SDS011;3283;52.330;9.772;2024-03-17T15:09:05;8.00;;;4.30;;
6499;SDS011;3283;52.330;9.772;2024-03-17T15:11:31;8.67;;;5.97;;
6499;SDS011;3283;52.330;9.772;2024-03-17T15:13:56;9.10;;;5.07;;
6499;SDS011;3283;52.330;9.772;2024-03-17T15:16:21;7.90;;;5.50;;
6499;SDS011;3283;52.330;9.772;2024-03-17T15:18:48;8.60;;;5.50;;
6499;SDS011;3283;52.330;9.772;2024-03-17T15:21:14;10.00;;;5.90;;
6499;SDS011;3283;52.330;9.772;2024-03-17T15:23:40;10.43;;;5.50;;
6499;SDS011;3283;52.330;9.772;2024-03-17T15:26:06;9.57;;;5.60;;
6499;SDS011;3283;52.330;9.772;2024-03-17T15:28:38;11.20;;;5.87;;
6499;SDS011;3283;52.330;9.772;2024-03-17T15:31:07;9.50;;;5.93;;
6499;SDS011;3283;52.330;9.772;2024-03-17T15:33:36;8.43;;;4.90;;
6499;SDS011;3283;52.330;9.772;2024-03-17T15:36:05;8.20;;;5.80;;
6499;SDS011;3283;52.330;9.772;2024-03-17T15:38:33;7.63;;;4.90;;
6499;SDS011;3283;52.330;9.772;2024-03-17T15:41:03;7.70;;;5.10;;
6499;SDS011;3283;52.330;9.772;2024-03-17T15:43:38;12.70;;;5.80;;
6499;SDS011;3283;52.330;9.772;2024-03-17T15:48:34;21.73;;;10.33;;
6499;SDS011;3283;52.330;9.772;2024-03-17T15:51:00;14.20;;;7.30;;
6499;SDS011;3283;52.330;9.772;2024-03-17T15:53:26;8.40;;;5.53;;